Time;durP1;ratioP1;P1;durP2;ratioP2;P2;SDS_P1;SDS_P2;PMS_P1;PMS_P2;Temp;Humidity;BMP_temperature;BMP_pressure;BME280_temperature;BME280_humidity;BME280_pressure;Samples;Min_cycle;Max_cycle;Signal;HPM_P1;HPM_P2
2022/12/20 00:00:43;;;;;;;88.07;31.13;;;1.30;99.90;;;;;;5001336;28;20545;-66
2022/12/20 00:03:12;;;;;;;82.85;29.85;;;1.30;99.90;;;;;;5006778;28;20022;-65
2022/12/20 00:05:39;;;;;;;78.38;29.80;;;1.30;99.90;;;;;;5004902;28;20036;-65
2022/12/20 00:08:05;;;;;;;80.50;28.83;;;1.20;99.90;;;;;;5005864;28;20389;-66
2022/12/20 00:10:42;;;;;;;85.15;30.45;;;1.20;99.90;;;;;;4998604;28;20043;-66
2022/12/20 00:13:08;;;;;;;82.97;29.95;;;1.30;99.90;;;;;;4998900;28;20104;-66
2022/12/20 00:15:34;;;;;;;83.95;30.08;;;1.30;99.90;;;;;;4991596;28;20173;-66
2022/12/20 00:18:00;;;;;;;76.05;28.48;;;1.20;99.90;;;;;;5005927;28;20069;-65
2022/12/20 00:20:27;;;;;;;75.75;28.27;;;1.10;99.90;;;;;;5007196;28;20088;-66
2022/12/20 00:22:52;;;;;;;65.95;27.45;;;1.10;99.90;;;;;;4992718;28;20057;-67
2022/12/20 00:25:19;;;;;;;76.28;28.02;;;1.10;99.90;;;;;;5006813;28;20038;-66
2022/12/20 00:27:46;;;;;;;85.03;28.85;;;1.00;99.90;;;;;;4989337;28;20038;-66
2022/12/20 00:30:12;;;;;;;78.20;29.25;;;1.00;99.90;;;;;;4991497;28;20046;-66
2022/12/20 00:32:38;;;;;;;78.75;28.88;;;1.00;99.90;;;;;;5003624;28;20045;-66
2022/12/20 00:35:04;;;;;;;82.80;29.25;;;1.10;99.90;;;;;;5010467;28;20042;-66
2022/12/20 00:37:30;;;;;;;75.20;27.85;;;1.20;99.90;;;;;;4999716;28;20034;-65
2022/12/20 00:39:55;;;;;;;77.20;28.88;;;1.20;99.90;;;;;;5020655;28;20057;-67
2022/12/20 00:42:21;;;;;;;79.50;29.27;;;1.20;99.90;;;;;;5011100;28;20084;-67
2022/12/20 00:44:47;;;;;;;78.07;28.85;;;1.20;99.90;;;;;;5011040;28;20412;-66
2022/12/20 00:47:13;;;;;;;71.68;28.90;;;1.20;99.90;;;;;;4992205;28;20038;-66
2022/12/20 00:49:39;;;;;;;77.05;28.02;;;1.10;99.90;;;;;;4998621;28;20172;-66
2022/12/20 00:52:05;;;;;;;75.05;27.05;;;1.10;99.90;;;;;;4998597;28;20097;-66
2022/12/20 00:54:30;;;;;;;71.35;27.70;;;1.10;99.90;;;;;;5021891;28;20048;-65
2022/12/20 00:56:56;;;;;;;77.97;27.38;;;1.10;99.90;;;;;;5010410;28;20368;-65
2022/12/20 00:59:22;;;;;;;65.00;26.02;;;1.10;99.90;;;;;;5009455;28;20488;-66
2022/12/20 01:01:47;;;;;;;75.97;27.33;;;1.10;99.90;;;;;;5010968;28;20030;-66
2022/12/20 01:04:13;;;;;;;72.95;27.23;;;1.10;99.90;;;;;;5007063;28;20041;-66
2022/12/20 01:06:39;;;;;;;74.35;26.83;;;1.00;99.90;;;;;;4997402;28;20026;-66
2022/12/20 01:09:05;;;;;;;68.93;26.15;;;1.00;99.90;;;;;;5008735;28;20041;-67
2022/12/20 01:11:33;;;;;;;70.30;27.25;;;1.00;99.90;;;;;;5010822;28;20056;-66
2022/12/20 01:14:04;;;;;;;75.13;29.42;;;1.10;99.90;;;;;;4997710;28;20070;-65
2022/12/20 01:16:39;;;;;;;75.53;27.48;;;1.10;99.90;;;;;;5003681;28;20026;-67
2022/12/20 01:19:06;;;;;;;78.38;28.23;;;1.00;99.90;;;;;;4991421;28;20049;-67
2022/12/20 01:21:33;;;;;;;73.70;26.95;;;1.10;99.90;;;;;;4991789;28;20442;-66
2022/12/20 01:23:59;;;;;;;66.30;25.15;;;1.10;99.90;;;;;;5009306;28;20062;-67
2022/12/20 01:26:27;;;;;;;70.03;25.30;;;1.10;99.90;;;;;;5009985;28;20391;-65
2022/12/20 01:28:55;;;;;;;66.78;25.65;;;1.10;99.90;;;;;;4998704;28;20037;-66
2022/12/20 01:31:22;;;;;;;61.03;24.88;;;1.10;99.90;;;;;;5003605;28;20052;-66
2022/12/20 01:33:49;;;;;;;70.38;25.27;;;1.10;99.90;;;;;;5009437;28;20133;-64
2022/12/20 01:36:18;;;;;;;64.90;24.88;;;1.10;99.90;;;;;;5006145;28;20760;-66
2022/12/20 01:38:44;;;;;;;62.67;24.20;;;1.10;99.90;;;;;;5007920;28;20395;-66
2022/12/20 01:41:19;;;;;;;64.43;24.48;;;1.20;99.90;;;;;;5005927;28;20052;-66
2022/12/20 01:43:48;;;;;;;68.78;24.70;;;1.20;99.90;;;;;;5008819;28;20124;-65
2022/12/20 01:46:14;;;;;;;66.47;25.17;;;1.20;99.90;;;;;;5009446;28;20033;-66
2022/12/20 01:48:43;;;;;;;66.35;25.73;;;1.20;99.90;;;;;;5009173;28;20048;-66
2022/12/20 01:51:09;;;;;;;67.13;25.95;;;1.30;99.90;;;;;;5010760;28;20121;-66
2022/12/20 01:53:35;;;;;;;75.82;27.10;;;1.30;99.90;;;;;;5014244;28;20034;-66
2022/12/20 01:56:04;;;;;;;72.18;28.70;;;1.20;99.90;;;;;;5010730;28;20037;-67
2022/12/20 01:58:31;;;;;;;72.70;27.80;;;1.10;99.90;;;;;;5008187;28;20115;-64
2022/12/20 02:00:57;;;;;;;79.28;27.58;;;1.10;99.90;;;;;;5003463;28;20050;-65
2022/12/20 02:03:22;;;;;;;69.60;26.17;;;1.00;99.90;;;;;;4990473;28;20708;-66
2022/12/20 02:05:48;;;;;;;74.00;28.15;;;1.10;99.90;;;;;;4993090;28;20077;-66
2022/12/20 02:08:17;;;;;;;71.47;26.23;;;1.10;99.90;;;;;;5009204;28;20034;-66
2022/12/20 02:10:46;;;;;;;66.07;24.65;;;1.10;99.90;;;;;;4993274;28;20030;-65
2022/12/20 02:13:24;;;;;;;72.95;25.67;;;1.10;99.90;;;;;;4995856;28;20118;-65
2022/12/20 02:15:56;;;;;;;73.03;25.85;;;1.10;99.90;;;;;;4992096;28;20475;-65
2022/12/20 02:18:32;;;;;;;69.03;24.58;;;1.10;99.90;;;;;;5003095;28;20041;-65
2022/12/20 02:21:16;;;;;;;72.20;25.33;;;1.10;99.90;;;;;;5008384;28;20037;-66
2022/12/20 02:24:30;;;;;;;69.10;26.08;;;1.10;99.90;;;;;;5006417;28;20050;-67
2022/12/20 02:26:58;;;;;;;61.00;23.80;;;1.10;99.90;;;;;;4996548;28;20402;-66
2022/12/20 02:29:44;;;;;;;69.82;25.00;;;1.10;99.90;;;;;;5001502;28;20030;-66
2022/12/20 02:32:27;;;;;;;70.18;25.88;;;1.10;99.90;;;;;;5008707;28;20037;-66
2022/12/20 02:34:53;;;;;;;72.18;25.83;;;1.20;99.90;;;;;;4996921;28;20033;-64
2022/12/20 02:37:19;;;;;;;64.85;26.35;;;1.20;99.90;;;;;;5008247;28;20030;-65
2022/12/20 02:39:46;;;;;;;80.57;27.90;;;1.20;99.90;;;;;;5009118;28;20041;-65
2022/12/20 02:42:15;;;;;;;68.65;24.88;;;1.20;99.90;;;;;;5008255;28;20036;-66
2022/12/20 02:47:35;;;;;;;74.72;25.83;;;1.20;99.90;;;;;;4995410;28;20076;-66
2022/12/20 02:50:03;;;;;;;68.43;25.30;;;1.10;99.90;;;;;;5007199;28;20487;-67
2022/12/20 02:52:30;;;;;;;64.55;23.77;;;1.20;99.90;;;;;;5007992;28;20129;-66
2022/12/20 02:54:57;;;;;;;67.82;23.85;;;1.20;99.90;;;;;;5009181;28;20041;-66
2022/12/20 02:57:33;;;;;;;66.75;25.20;;;1.20;99.90;;;;;;5007691;28;20037;-64
2022/12/20 03:00:07;;;;;;;64.72;24.70;;;1.20;99.90;;;;;;5013678;28;20034;-67
2022/12/20 03:03:21;;;;;;;65.90;25.15;;;1.10;99.90;;;;;;5006107;28;20235;-66
2022/12/20 03:05:22;;;;;;;68.55;24.90;;;1.00;99.90;;;;;;4994284;28;20239;-65
2022/12/20 03:07:48;;;;;;;69.38;25.30;;;1.00;99.90;;;;;;5009673;28;20034;-65
2022/12/20 03:10:15;;;;;;;69.70;24.88;;;1.00;99.90;;;;;;5006368;28;20034;-66
2022/12/20 03:12:41;;;;;;;68.35;26.08;;;1.00;99.90;;;;;;5007435;28;20041;-66
2022/12/20 03:15:08;;;;;;;72.75;27.05;;;1.10;99.90;;;;;;5024379;28;20045;-68
2022/12/20 03:17:34;;;;;;;69.35;26.17;;;1.00;99.90;;;;;;5022166;28;20567;-66
2022/12/20 03:19:59;;;;;;;68.05;24.90;;;1.00;99.90;;;;;;4989587;28;20030;-65
2022/12/20 03:22:25;;;;;;;63.97;25.75;;;0.90;99.90;;;;;;5005808;28;20073;-66
2022/12/20 03:24:51;;;;;;;68.88;24.10;;;0.90;99.90;;;;;;5009454;28;20037;-67
2022/12/20 03:27:17;;;;;;;64.50;23.92;;;0.90;99.90;;;;;;4995985;28;20080;-65
2022/12/20 03:29:44;;;;;;;59.20;23.00;;;0.90;99.90;;;;;;5010907;28;20038;-66
2022/12/20 03:32:11;;;;;;;62.65;24.23;;;1.00;99.90;;;;;;5006885;28;20050;-66
2022/12/20 03:34:36;;;;;;;66.78;24.80;;;1.00;99.90;;;;;;5007763;28;20383;-65
2022/12/20 03:37:02;;;;;;;72.35;26.40;;;1.00;99.90;;;;;;5007304;28;20041;-65
2022/12/20 03:39:28;;;;;;;64.43;23.65;;;0.90;99.90;;;;;;5007733;28;20052;-66
2022/12/20 03:41:53;;;;;;;64.60;24.83;;;0.90;99.90;;;;;;5008478;28;20040;-65
2022/12/20 03:44:19;;;;;;;64.75;23.42;;;0.90;99.90;;;;;;5007207;28;20475;-67
2022/12/20 03:46:45;;;;;;;58.22;22.30;;;0.90;99.90;;;;;;5001808;28;20033;-66
2022/12/20 03:49:10;;;;;;;65.63;24.23;;;0.90;99.90;;;;;;5002740;28;20034;-66
2022/12/20 03:51:36;;;;;;;67.18;24.10;;;0.90;99.90;;;;;;5011270;28;20084;-66
2022/12/20 03:54:01;;;;;;;64.30;23.08;;;0.90;99.90;;;;;;5005398;28;20247;-66
2022/12/20 03:56:27;;;;;;;74.72;24.90;;;1.00;99.90;;;;;;5008152;28;20026;-66
2022/12/20 03:58:53;;;;;;;67.97;23.67;;;0.90;99.90;;;;;;5007756;28;20069;-66
2022/12/20 04:01:19;;;;;;;57.97;22.77;;;0.80;99.90;;;;;;5018044;28;20044;-67
2022/12/20 04:03:45;;;;;;;68.28;23.70;;;0.80;99.90;;;;;;5007931;28;20446;-66
2022/12/20 04:06:11;;;;;;;63.25;22.88;;;0.80;99.90;;;;;;5005486;28;20065;-65
2022/12/20 04:08:36;;;;;;;63.92;22.85;;;0.70;99.90;;;;;;5000491;28;20057;-67
2022/12/20 04:11:17;;;;;;;61.10;22.48;;;0.80;99.90;;;;;;5008832;28;20036;-67
2022/12/20 04:13:51;;;;;;;60.75;22.90;;;0.80;99.90;;;;;;5007019;28;20077;-66
2022/12/20 04:16:20;;;;;;;59.53;21.42;;;0.80;99.90;;;;;;5007842;28;20042;-65
2022/12/20 04:18:45;;;;;;;67.32;25.30;;;0.80;99.90;;;;;;5001518;28;20030;-66
2022/12/20 04:21:12;;;;;;;57.75;22.55;;;0.80;99.90;;;;;;5004998;28;20064;-66
2022/12/20 04:23:39;;;;;;;64.70;23.20;;;0.80;99.90;;;;;;4995207;28;20542;-66
2022/12/20 04:26:07;;;;;;;63.38;24.08;;;0.70;99.90;;;;;;5027024;28;20061;-65
2022/12/20 04:28:33;;;;;;;66.05;24.20;;;0.70;99.90;;;;;;5003228;28;20045;-66
2022/12/20 04:31:00;;;;;;;58.72;23.75;;;0.70;99.90;;;;;;5008515;28;20034;-66
2022/12/20 04:33:26;;;;;;;66.00;23.25;;;0.60;99.90;;;;;;5004197;28;20026;-66
2022/12/20 04:35:52;;;;;;;62.95;24.92;;;0.70;99.90;;;;;;4999163;28;20104;-66
2022/12/20 04:38:20;;;;;;;61.58;23.40;;;0.70;99.90;;;;;;5007745;28;20026;-66
2022/12/20 04:40:51;;;;;;;60.25;23.85;;;0.70;99.90;;;;;;5008444;28;20033;-65
2022/12/20 04:43:18;;;;;;;62.72;23.42;;;0.70;99.90;;;;;;5009036;28;20026;-66
2022/12/20 04:45:46;;;;;;;56.47;22.13;;;0.60;99.90;;;;;;5017724;28;20379;-66
2022/12/20 04:48:12;;;;;;;63.33;23.20;;;0.60;99.90;;;;;;5025564;28;20457;-65
2022/12/20 04:50:38;;;;;;;63.70;23.58;;;0.60;99.90;;;;;;5028253;28;20029;-66
2022/12/20 04:55:48;;;;;;;68.03;25.35;;;0.60;99.90;;;;;;4988597;28;20037;-64
2022/12/20 04:58:13;;;;;;;66.05;23.60;;;0.70;99.90;;;;;;5006045;28;20029;-67
2022/12/20 05:00:39;;;;;;;61.72;23.48;;;0.70;99.90;;;;;;4990451;28;20052;-66
2022/12/20 05:03:04;;;;;;;62.58;22.95;;;0.80;99.90;;;;;;4992545;28;20541;-65
2022/12/20 05:05:30;;;;;;;60.72;22.95;;;0.80;99.90;;;;;;5006514;28;20109;-66
2022/12/20 05:07:56;;;;;;;59.75;23.55;;;0.90;99.90;;;;;;4991038;28;20113;-67
2022/12/20 05:10:22;;;;;;;61.60;22.98;;;0.90;99.90;;;;;;4987570;28;20141;-66
2022/12/20 05:12:47;;;;;;;60.13;23.35;;;0.90;99.90;;;;;;5001522;28;20470;-65
2022/12/20 05:15:13;;;;;;;70.05;24.38;;;0.90;99.90;;;;;;5006250;28;20042;-66
2022/12/20 05:17:38;;;;;;;62.42;24.67;;;1.00;99.90;;;;;;5003211;28;20034;-66
2022/12/20 05:20:05;;;;;;;61.25;24.75;;;1.00;99.90;;;;;;5010099;28;20045;-67
2022/12/20 05:27:59;;;;;;;60.17;23.02;;;1.00;99.90;;;;;;5010458;28;20060;-66
2022/12/20 05:30:25;;;;;;;61.47;23.30;;;1.00;99.90;;;;;;5008769;28;20650;-65
2022/12/20 05:32:51;;;;;;;67.18;25.30;;;1.10;99.90;;;;;;5011996;28;20030;-66
2022/12/20 05:35:17;;;;;;;65.68;24.25;;;1.00;99.90;;;;;;5017128;28;20034;-66
2022/12/20 05:37:42;;;;;;;63.75;23.83;;;0.80;99.90;;;;;;5011016;28;20901;-65
2022/12/20 05:40:09;;;;;;;61.90;23.23;;;0.80;99.90;;;;;;5010372;28;20048;-66
2022/12/20 05:42:35;;;;;;;64.30;23.42;;;0.80;99.90;;;;;;5023790;28;20076;-65
2022/12/20 05:45:01;;;;;;;62.10;23.40;;;0.80;99.90;;;;;;5020780;28;20753;-66
2022/12/20 05:47:27;;;;;;;63.63;22.45;;;0.80;99.90;;;;;;5009017;28;20044;-65
2022/12/20 05:49:54;;;;;;;62.60;25.15;;;0.80;99.90;;;;;;5009427;28;20037;-65
2022/12/20 05:52:20;;;;;;;58.88;22.45;;;0.80;99.90;;;;;;5009851;28;20084;-66
2022/12/20 05:54:45;;;;;;;66.95;24.17;;;0.80;99.90;;;;;;5008176;28;20472;-66
2022/12/20 05:57:13;;;;;;;60.80;23.58;;;0.80;99.90;;;;;;5007260;28;20030;-67
2022/12/20 05:59:39;;;;;;;71.63;26.17;;;0.90;99.90;;;;;;5009190;28;20040;-64
2022/12/20 06:02:05;;;;;;;60.65;24.23;;;0.80;99.90;;;;;;4998280;28;20034;-66
2022/12/20 06:04:31;;;;;;;64.13;24.05;;;0.80;99.90;;;;;;4994003;28;20061;-66
2022/12/20 06:06:58;;;;;;;67.43;24.83;;;0.80;99.90;;;;;;5009069;28;20502;-65
2022/12/20 06:09:24;;;;;;;64.22;23.60;;;0.90;99.90;;;;;;5020515;28;20068;-66
2022/12/20 06:11:50;;;;;;;67.22;24.73;;;0.90;99.90;;;;;;5012020;28;20061;-66
2022/12/20 06:14:15;;;;;;;72.47;24.42;;;0.90;99.90;;;;;;5009819;28;20041;-69
2022/12/20 06:16:41;;;;;;;65.60;25.33;;;0.90;99.90;;;;;;5004859;28;20034;-65
2022/12/20 06:19:15;;;;;;;67.05;24.60;;;0.90;99.90;;;;;;4990932;28;20046;-65
2022/12/20 06:21:41;;;;;;;61.47;23.85;;;0.90;99.90;;;;;;5002432;28;20030;-65
2022/12/20 06:24:07;;;;;;;84.82;33.30;;;1.00;99.90;;;;;;5020998;28;20064;-64
2022/12/20 06:26:36;;;;;;;94.03;33.72;;;1.00;99.90;;;;;;5014182;28;20038;-65
2022/12/20 06:29:07;;;;;;;101.65;37.45;;;1.00;99.90;;;;;;5010389;28;20044;-66
2022/12/20 06:31:33;;;;;;;93.00;37.03;;;1.10;99.90;;;;;;5007461;28;20042;-65
2022/12/20 06:33:59;;;;;;;80.82;30.77;;;1.10;99.90;;;;;;4998800;28;20318;-64
2022/12/20 06:36:24;;;;;;;66.97;27.27;;;1.10;99.90;;;;;;5007416;28;20040;-65
2022/12/20 06:38:50;;;;;;;62.15;25.05;;;1.10;99.90;;;;;;5008106;28;20079;-66
2022/12/20 06:41:16;;;;;;;72.55;28.08;;;1.10;99.90;;;;;;5000992;28;20080;-66
2022/12/20 06:43:41;;;;;;;73.65;27.85;;;1.10;99.90;;;;;;5008978;28;20030;-65
2022/12/20 06:46:07;;;;;;;77.10;28.92;;;1.10;99.90;;;;;;5005853;28;20049;-66
2022/12/20 06:48:33;;;;;;;78.15;29.55;;;1.20;99.90;;;;;;5001328;28;20042;-65
2022/12/20 06:50:59;;;;;;;70.65;26.67;;;1.20;99.90;;;;;;5009964;28;20090;-66
2022/12/20 06:53:24;;;;;;;63.15;25.30;;;1.20;99.90;;;;;;5001769;28;20053;-66
2022/12/20 06:55:50;;;;;;;63.33;25.20;;;1.20;99.90;;;;;;5007422;28;20038;-67
2022/12/20 06:58:17;;;;;;;62.60;24.80;;;1.20;99.90;;;;;;5010907;28;20105;-66
2022/12/20 07:00:43;;;;;;;61.65;24.83;;;1.20;99.90;;;;;;5008459;28;20034;-65
2022/12/20 07:03:08;;;;;;;66.68;24.38;;;1.20;99.90;;;;;;5007839;28;20037;-64
2022/12/20 07:05:34;;;;;;;62.50;24.95;;;1.20;99.90;;;;;;5007310;28;20037;-64
2022/12/20 07:08:01;;;;;;;65.45;25.40;;;1.20;99.90;;;;;;5004382;28;20053;-66
2022/12/20 07:10:27;;;;;;;66.05;25.70;;;1.30;99.90;;;;;;5000770;28;20026;-67
2022/12/20 07:12:53;;;;;;;72.20;27.08;;;1.20;99.90;;;;;;4995497;28;20041;-66
2022/12/20 07:15:20;;;;;;;67.47;26.50;;;1.30;99.90;;;;;;5000570;28;20037;-67
2022/12/20 07:17:46;;;;;;;69.35;26.65;;;1.30;99.90;;;;;;5007243;28;20029;-65
2022/12/20 07:20:12;;;;;;;73.30;27.45;;;1.30;99.90;;;;;;5007929;28;20041;-65
2022/12/20 07:22:38;;;;;;;71.70;27.13;;;1.30;99.90;;;;;;4999054;28;20049;-67
2022/12/20 07:25:04;;;;;;;71.38;26.90;;;1.30;99.90;;;;;;5000642;28;20123;-67
2022/12/20 07:27:30;;;;;;;74.28;26.83;;;1.30;99.90;;;;;;5006169;28;20394;-65
2022/12/20 07:29:55;;;;;;;70.85;27.88;;;1.30;99.90;;;;;;5008829;28;20129;-65
2022/12/20 07:32:21;;;;;;;77.47;31.17;;;1.40;99.90;;;;;;5005784;28;20026;-66
2022/12/20 07:34:47;;;;;;;81.32;31.30;;;1.50;99.90;;;;;;5006887;28;20507;-64
2022/12/20 07:37:12;;;;;;;67.53;27.65;;;1.50;99.90;;;;;;5007511;28;20068;-65
2022/12/20 07:39:38;;;;;;;70.00;27.13;;;1.60;99.90;;;;;;5006783;28;20064;-64
2022/12/20 07:42:04;;;;;;;66.78;26.65;;;1.60;99.90;;;;;;5006926;28;20034;-65
2022/12/20 07:44:29;;;;;;;71.70;28.63;;;1.60;99.90;;;;;;5006338;28;20030;-66
2022/12/20 07:46:55;;;;;;;60.28;25.42;;;1.60;99.90;;;;;;5006319;28;20034;-65
2022/12/20 07:49:21;;;;;;;63.42;23.98;;;1.50;99.90;;;;;;4997525;28;20036;-66
2022/12/20 07:51:51;;;;;;;58.45;24.05;;;1.50;99.90;;;;;;4989026;28;20040;-66
2022/12/20 07:54:19;;;;;;;72.00;26.15;;;1.50;99.90;;;;;;4996067;28;20034;-65
2022/12/20 07:56:49;;;;;;;57.53;23.35;;;1.50;99.90;;;;;;4997003;28;20038;-65
2022/12/20 07:59:20;;;;;;;58.25;23.35;;;1.50;99.90;;;;;;4988537;28;20061;-65
2022/12/20 08:01:47;;;;;;;58.75;23.45;;;1.50;99.90;;;;;;5002776;28;20065;-66
2022/12/20 08:04:17;;;;;;;61.00;24.92;;;1.50;99.90;;;;;;5003678;28;20121;-66
2022/12/20 08:06:43;;;;;;;63.00;25.10;;;1.50;99.90;;;;;;5001798;28;20471;-66
2022/12/20 08:09:12;;;;;;;64.25;24.52;;;1.60;99.90;;;;;;5008191;28;20034;-66
2022/12/20 08:11:40;;;;;;;61.70;24.95;;;1.60;99.90;;;;;;5006771;28;20065;-67
2022/12/20 08:14:07;;;;;;;61.95;24.65;;;1.70;99.90;;;;;;5007362;28;20022;-67
2022/12/20 08:16:33;;;;;;;60.92;24.48;;;1.70;99.90;;;;;;4995490;28;20030;-66
2022/12/20 08:18:59;;;;;;;57.88;23.95;;;1.80;99.90;;;;;;4988699;28;20110;-65
2022/12/20 08:21:24;;;;;;;63.88;25.40;;;1.80;99.90;;;;;;4997922;28;20073;-65
2022/12/20 08:23:50;;;;;;;64.78;24.17;;;1.80;99.90;;;;;;4996623;28;20077;-66
2022/12/20 08:26:16;;;;;;;67.60;24.98;;;1.90;99.90;;;;;;4988721;28;20431;-65
2022/12/20 08:28:42;;;;;;;60.05;23.85;;;2.00;99.90;;;;;;4998371;28;20034;-65
2022/12/20 08:31:09;;;;;;;69.78;26.67;;;2.10;99.90;;;;;;5004993;28;20034;-67
2022/12/20 08:33:36;;;;;;;72.65;28.58;;;2.10;99.90;;;;;;5007193;28;20045;-66
2022/12/20 08:36:04;;;;;;;72.00;28.35;;;2.20;99.90;;;;;;4998805;28;20111;-66
2022/12/20 08:38:31;;;;;;;69.15;27.88;;;2.20;99.90;;;;;;5007644;28;20025;-66
2022/12/20 08:41:11;;;;;;;68.10;26.83;;;2.30;99.90;;;;;;5007030;28;20467;-64
2022/12/20 08:43:38;;;;;;;69.55;27.27;;;2.30;99.90;;;;;;5006959;28;20034;-66
2022/12/20 08:46:05;;;;;;;69.22;28.05;;;2.20;99.90;;;;;;5007133;28;20041;-66
2022/12/20 08:48:32;;;;;;;68.88;28.40;;;2.20;99.90;;;;;;5005657;28;20061;-64
2022/12/20 08:51:00;;;;;;;71.57;29.13;;;2.20;99.90;;;;;;5009463;28;20030;-67
2022/12/20 08:53:26;;;;;;;74.03;29.60;;;2.20;99.90;;;;;;4991462;28;20030;-67
2022/12/20 08:55:52;;;;;;;73.50;28.10;;;2.20;99.90;;;;;;4997839;28;20069;-66
2022/12/20 08:58:19;;;;;;;69.90;28.45;;;2.20;99.90;;;;;;5012070;28;20570;-66
2022/12/20 09:00:45;;;;;;;59.90;25.88;;;2.20;99.90;;;;;;5009314;28;20029;-65
2022/12/20 09:03:12;;;;;;;64.97;25.45;;;2.20;99.90;;;;;;5009230;28;20490;-66
2022/12/20 09:05:48;;;;;;;66.22;28.35;;;2.20;99.90;;;;;;5008968;28;20029;-66
2022/12/20 09:08:16;;;;;;;70.53;29.38;;;2.20;99.90;;;;;;5014336;28;20052;-68
2022/12/20 09:10:42;;;;;;;83.28;32.65;;;2.30;99.90;;;;;;5000604;28;20030;-67
2022/12/20 09:13:08;;;;;;;90.38;36.45;;;2.30;99.90;;;;;;4994292;28;20032;-66
2022/12/20 09:15:35;;;;;;;76.10;32.13;;;2.30;99.90;;;;;;5010265;28;20047;-67
2022/12/20 09:18:01;;;;;;;79.57;33.47;;;2.40;99.90;;;;;;5011560;28;20034;-65
2022/12/20 09:20:27;;;;;;;81.22;34.22;;;2.40;99.90;;;;;;4994968;28;20081;-66
2022/12/20 09:22:53;;;;;;;82.82;33.83;;;2.50;99.90;;;;;;4991307;28;20518;-65
2022/12/20 09:25:19;;;;;;;71.57;28.50;;;2.60;99.90;;;;;;5009190;28;20144;-66
2022/12/20 09:27:44;;;;;;;65.30;28.05;;;2.60;99.90;;;;;;5010831;28;20049;-65
2022/12/20 09:30:10;;;;;;;69.15;27.10;;;2.60;99.90;;;;;;5010907;28;20049;-65
2022/12/20 09:32:36;;;;;;;79.68;30.60;;;2.70;99.90;;;;;;5009255;28;20038;-65
2022/12/20 09:35:03;;;;;;;71.47;29.63;;;2.70;99.90;;;;;;5003567;28;20042;-67
2022/12/20 09:37:30;;;;;;;76.15;30.80;;;2.80;99.90;;;;;;5041008;28;20038;-67
2022/12/20 09:39:56;;;;;;;65.20;27.48;;;2.80;99.90;;;;;;5010376;28;20030;-66
2022/12/20 09:42:26;;;;;;;62.20;26.27;;;2.80;99.90;;;;;;5000268;28;20038;-67
2022/12/20 09:45:06;;;;;;;63.03;26.45;;;2.80;99.90;;;;;;5009970;28;20040;-68
2022/12/20 09:47:34;;;;;;;60.37;24.37;;;2.80;99.90;;;;;;5001410;28;20392;-67
2022/12/20 09:50:01;;;;;;;62.00;25.45;;;2.80;99.90;;;;;;5009354;28;20026;-66
2022/12/20 09:53:05;;;;;;;55.90;23.60;;;2.70;99.90;;;;;;5004662;28;20429;-67
2022/12/20 09:55:45;;;;;;;67.10;26.17;;;2.80;99.90;;;;;;5004251;28;20041;-69
2022/12/20 09:58:20;;;;;;;;;;;2.80;99.90;;;;;;4991940;28;20039;-67
2022/12/20 10:00:47;;;;;;;69.07;27.27;;;2.90;99.90;;;;;;5005508;28;19910;-67
2022/12/20 10:03:20;;;;;;;68.72;28.42;;;2.90;99.90;;;;;;5008703;28;20077;-66
2022/12/20 10:05:57;;;;;;;65.95;27.20;;;2.90;99.90;;;;;;5003156;28;20057;-66
2022/12/20 10:08:55;;;;;;;81.45;32.25;;;2.90;99.90;;;;;;5010494;28;20764;-68
2022/12/20 10:11:42;;;;;;;85.53;35.03;;;2.90;99.90;;;;;;5006588;28;20058;-68
2022/12/20 10:14:26;;;;;;;93.10;37.92;;;2.90;99.90;;;;;;4991118;28;20034;-68
2022/12/20 10:16:57;;;;;;;97.57;38.65;;;3.00;99.90;;;;;;5003818;28;20026;-67
2022/12/20 10:19:57;;;;;;;94.25;37.28;;;3.10;99.90;;;;;;5010070;28;20032;-67
2022/12/20 10:22:35;;;;;;;89.75;36.35;;;3.10;99.90;;;;;;5007974;28;20077;-67
2022/12/20 10:25:17;;;;;;;93.30;37.60;;;3.10;99.90;;;;;;5010587;28;20038;-66
2022/12/20 10:27:45;;;;;;;91.18;37.78;;;3.10;99.90;;;;;;4994964;28;20315;-67
2022/12/20 10:30:22;;;;;;;93.53;37.00;;;3.10;99.90;;;;;;5027716;28;20028;-67
2022/12/20 10:32:53;;;;;;;88.38;37.78;;;3.10;99.90;;;;;;5008084;28;20025;-68
2022/12/20 10:35:32;;;;;;;99.72;40.90;;;3.10;99.90;;;;;;5009025;28;20471;-66
2022/12/20 10:38:02;;;;;;;84.25;35.28;;;3.20;99.90;;;;;;5009869;28;20346;-67
2022/12/20 10:40:27;;;;;;;78.78;33.67;;;3.30;99.90;;;;;;5011575;28;20038;-66
2022/12/20 10:42:54;;;;;;;76.70;30.83;;;3.40;99.90;;;;;;5009826;28;20144;-67
2022/12/20 10:45:20;;;;;;;69.15;31.20;;;3.50;99.90;;;;;;5009271;28;20117;-66
2022/12/20 10:47:50;;;;;;;67.95;29.75;;;3.60;99.90;;;;;;5007971;28;20105;-67
2022/12/20 10:50:23;;;;;;;69.43;30.52;;;3.80;99.90;;;;;;5008531;28;20036;-67
2022/12/20 10:53:16;;;;;;;67.45;30.45;;;4.10;99.90;;;;;;5006274;28;20533;-66
2022/12/20 10:55:42;;;;;;;70.15;29.48;;;4.40;99.90;;;;;;5009006;28;20124;-66
2022/12/20 10:58:20;;;;;;;63.30;29.23;;;4.60;99.90;;;;;;4997731;28;20464;-67
2022/12/20 11:00:46;;;;;;;66.53;29.55;;;4.60;99.90;;;;;;4989041;28;20041;-68
2022/12/20 11:03:12;;;;;;;66.05;29.17;;;4.60;99.90;;;;;;5004271;28;20034;-66
2022/12/20 11:05:38;;;;;;;65.82;28.00;;;4.50;99.90;;;;;;4996827;28;20030;-66
2022/12/20 11:08:17;;;;;;;64.85;28.77;;;4.40;99.90;;;;;;5007947;28;20041;-66
2022/12/20 11:10:43;;;;;;;64.50;27.02;;;4.30;99.90;;;;;;5005262;28;20018;-66
2022/12/20 11:13:24;;;;;;;62.28;26.98;;;4.30;99.90;;;;;;4995471;28;20048;-66
2022/12/20 11:15:53;;;;;;;;;;;4.20;99.90;;;;;;5007284;28;20640;-65
2022/12/20 11:18:30;;;;;;;64.63;27.60;;;4.10;99.90;;;;;;5007939;28;19917;-66
2022/12/20 11:21:06;;;;;;;68.70;27.85;;;4.10;99.90;;;;;;5007556;28;20045;-65
2022/12/20 11:23:40;;;;;;;72.70;31.13;;;4.10;99.90;;;;;;5018096;28;20135;-67
2022/12/20 11:26:12;;;;;;;62.78;28.85;;;4.00;99.90;;;;;;5009496;28;20042;-67
2022/12/20 11:28:49;;;;;;;77.03;33.20;;;4.10;99.90;;;;;;4990756;28;20050;-66
2022/12/20 11:31:17;;;;;;;154.93;61.30;;;4.10;99.90;;;;;;5001756;28;20513;-65
2022/12/20 11:34:02;;;;;;;162.88;65.32;;;4.10;99.90;;;;;;4988532;28;20065;-67
2022/12/20 11:36:40;;;;;;;95.53;40.72;;;4.20;99.90;;;;;;4993008;28;20113;-66
2022/12/20 11:39:33;;;;;;;73.65;34.08;;;4.20;99.90;;;;;;5008656;28;20057;-66
2022/12/20 11:42:23;;;;;;;72.47;30.48;;;4.20;99.90;;;;;;4998212;28;20099;-66
2022/12/20 11:45:09;;;;;;;67.65;28.67;;;4.20;99.90;;;;;;5018861;28;20070;-66
2022/12/20 11:47:41;;;;;;;70.13;29.08;;;4.10;99.90;;;;;;5007575;28;20037;-67
2022/12/20 11:50:35;;;;;;;67.72;30.17;;;4.10;99.90;;;;;;5006525;28;20034;-67
2022/12/20 11:53:11;;;;;;;74.28;31.23;;;4.10;99.90;;;;;;5008810;28;20029;-66
2022/12/20 11:55:41;;;;;;;71.20;29.83;;;4.00;99.90;;;;;;5006835;28;20042;-66
2022/12/20 11:58:13;;;;;;;77.45;34.50;;;4.00;99.90;;;;;;5000830;28;20133;-66
2022/12/20 12:00:44;;;;;;;72.45;31.92;;;4.00;99.90;;;;;;4988248;28;20173;-66
2022/12/20 12:03:31;;;;;;;;;;;4.00;99.90;;;;;;5022580;28;20432;-65
2022/12/20 12:06:09;;;;;;;85.10;38.38;;;4.00;99.90;;;;;;4988401;28;19996;-66
2022/12/20 12:08:40;;;;;;;98.25;41.63;;;4.00;99.90;;;;;;5008333;28;20061;-67
2022/12/20 12:11:40;;;;;;;102.55;44.63;;;4.00;99.90;;;;;;5003492;28;20426;-66
2022/12/20 12:14:20;;;;;;;97.00;40.80;;;4.10;99.90;;;;;;4977443;28;20043;-67
2022/12/20 12:16:53;;;;;;;78.25;35.13;;;4.10;99.90;;;;;;4993643;28;20122;-66
2022/12/20 12:19:18;;;;;;;90.47;40.60;;;4.10;99.90;;;;;;5008270;28;20037;-66
2022/12/20 12:21:55;;;;;;;95.05;40.70;;;4.10;99.90;;;;;;5005178;28;20510;-65
2022/12/20 12:24:33;;;;;;;93.10;39.88;;;4.20;99.90;;;;;;5020972;28;20402;-65
2022/12/20 12:27:00;;;;;;;78.45;35.97;;;4.20;99.90;;;;;;5013544;28;20784;-67
2022/12/20 12:29:28;;;;;;;74.57;33.70;;;4.20;99.90;;;;;;5012388;28;20180;-66
2022/12/20 12:32:02;;;;;;;72.53;32.22;;;4.30;99.90;;;;;;5009600;28;20065;-67
2022/12/20 12:34:57;;;;;;;75.60;34.38;;;4.30;99.90;;;;;;4993318;28;20035;-66
2022/12/20 12:37:33;;;;;;;80.00;34.25;;;4.40;99.90;;;;;;5000739;28;20030;-67
2022/12/20 12:40:15;;;;;;;72.78;32.25;;;4.40;99.90;;;;;;5020156;28;20140;-66
2022/12/20 12:43:18;;;;;;;75.65;34.65;;;4.40;99.90;;;;;;5031377;28;20022;-66
2022/12/20 12:45:56;;;;;;;83.47;35.88;;;4.40;99.90;;;;;;5010158;28;20077;-66
2022/12/20 12:48:43;;;;;;;74.45;34.67;;;4.50;99.90;;;;;;5010449;28;20491;-66
2022/12/20 12:51:14;;;;;;;69.95;33.53;;;4.50;99.90;;;;;;4992990;28;20038;-65
2022/12/20 12:53:53;;;;;;;72.13;31.27;;;4.50;99.90;;;;;;5000695;28;20153;-67
2022/12/20 12:56:25;;;;;;;69.93;29.67;;;4.50;99.90;;;;;;5002714;28;20034;-66
2022/12/20 12:59:05;;;;;;;71.72;31.05;;;4.50;99.90;;;;;;5011096;28;20379;-67
2022/12/20 13:01:46;;;;;;;;;;;4.60;99.90;;;;;;5008371;28;20081;-67